• Join FlightAware (Why Join?)
  • Login
  • US Flag 
09:40AM EST


 

Airport Tracker/Info


-or-


 

Live Flight TrackerFlight Track Log ✈ N5085K ✈ 31-Oct-2013 ✈ KVLD - KIPJ

Flight Track Log - Related Links

Times and Time Zones

All times are in EDT time to prevent confusion due to time zone crossing. See the N5085K flight status page for this flight to view local times or setup timezone preferences in your user account.

Time Position Orientation Groundspeed Altitude Reporting Facility
EDT Latitude Longitude Course Direction KTS MPH feet Rate Location/Type
02:26PM 30.7775 -83.2747 180° South 51 59 500  Level Jacksonville Center
02:27PM 30.7692 -83.2747 180° South 61 70 600 480 Climbing Jacksonville Center
02:28PM 30.7525 -83.2744 179° South 58 67 1,200 480 Climbing Jacksonville Center
02:29PM 30.7378 -83.2744 180° South 58 67 1,600 420 Climbing Jacksonville Center
02:30PM 30.7211 -83.2719 173° South 58 67 2,100 360 Climbing Jacksonville Center
02:31PM 30.7064 -83.2694 172° South 56 64 2,400 240 Climbing Jacksonville Center
02:32PM 30.7003 -83.2550 116° Southeast 76 87 2,700 360 Climbing Jacksonville Center
02:33PM 30.7253 -83.2406 26° Northeast 89 102 3,200 420 Climbing Jacksonville Center
02:34PM 30.7483 -83.2311 19° North 93 107 3,700 480 Climbing Jacksonville Center
02:35PM 30.7775 -83.2214 16° North 90 104 4,300 420 Climbing Jacksonville Center
02:36PM 30.7986 -83.2142 16° North 89 102 4,600 360 Climbing Jacksonville Center
02:37PM 30.8194 -83.2047 21° North 89 102 5,000 360 Climbing Jacksonville Center
02:38PM 30.8425 -83.1950 20° North 91 105 5,300 300 Climbing Jacksonville Center
02:39PM 30.8653 -83.1856 20° North 94 108 5,600 360 Climbing Jacksonville Center
02:40PM 30.8883 -83.1758 20° North 96 110 6,000 360 Climbing Jacksonville Center
02:41PM 30.9178 -83.1614 23° Northeast 95 109 6,400 300 Climbing Jacksonville Center
02:42PM 30.9428 -83.1469 26° Northeast 100 115 6,700 240 Climbing Jacksonville Center
02:43PM 30.9678 -83.1397 14° North 98 113 7,000 240 Climbing Jacksonville Center
02:44PM 30.9950 -83.1253 24° Northeast 97 112 7,300 240 Climbing Jacksonville Center
02:45PM 31.0181 -83.1156 20° North 98 113 7,500 300 Climbing Jacksonville Center
02:46PM 31.0431 -83.1061 18° North 98 113 7,900 300 Climbing Jacksonville Center
02:47PM 31.0681 -83.0986 14° North 99 114 8,100 240 Climbing Jacksonville Center
02:48PM 31.0953 -83.0867 21° North 104 120 8,400 240 Climbing Jacksonville Center
02:49PM 31.1203 -83.0744 23° Northeast 104 120 8,600 240 Climbing Jacksonville Center
02:50PM 31.1497 -83.0625 19° North 103 119 8,900 180 Climbing Jacksonville Center
02:51PM 31.1725 -83.0503 25° Northeast 102 117 9,000  Climbing Jacksonville Center
02:52PM 31.2039 -83.0408 14° North 112 129 9,000  Level Jacksonville Center
02:53PM 31.2414 -83.0261 19° North 130 150 9,000  Level Jacksonville Center
02:54PM 31.2792 -83.0117 18° North 135 155 9,000  Level Jacksonville Center
02:54PM 31.2875 -83.0092 14° North 133 153 9,000  Level Jacksonville Center
02:55PM 31.3231 -82.9947 19° North 140 161 9,000  Level Jacksonville Center
02:56PM 31.3586 -82.9800 19° North 151 174 9,000  Level Jacksonville Center
02:57PM 31.3961 -82.9656 18° North 141 162 9,100  Climbing Jacksonville Center
02:58PM 31.4294 -82.9511 20° North 136 157 9,000 -60 Descending Jacksonville Center
02:59PM 31.4672 -82.9339 21° North 136 157 9,000  Level Jacksonville Center
03:00PM 31.5047 -82.9194 18° North 131 151 9,000  Level Jacksonville Center
03:01PM 31.5403 -82.9047 19° North 131 151 9,000 -60 Level Jacksonville Center
03:02PM 31.5756 -82.8903 19° North 131 151 8,900  Descending Jacksonville Center
03:03PM 31.6133 -82.8756 18° North 131 151 9,000  Climbing Jacksonville Center
03:04PM 31.6486 -82.8608 20° North 131 151 9,000  Level Jacksonville Center
03:05PM 31.6842 -82.8486 16° North 131 151 9,000  Level Jacksonville Center
03:06PM 31.7175 -82.8314 24° Northeast 131 151 9,100  Climbing Jacksonville Center
03:07PM 31.7572 -82.8169 17° North 131 151 9,100  Level Jacksonville Center
03:08PM 31.7906 -82.8022 21° North 131 151 9,100 -60 Level Jacksonville Center
03:09PM 31.8283 -82.7900 15° North 131 151 9,000 -120 Descending Jacksonville Center
03:10PM 31.8658 -82.7775 16° North 131 151 8,900  Descending Jacksonville Center
03:11PM 31.9033 -82.7606 21° North 131 151 9,000  Climbing Jacksonville Center
03:12PM 31.9389 -82.7456 20° North 131 151 9,000 -60 Level Jacksonville Center
03:13PM 31.9722 -82.7333 17° North 131 151 8,900  Descending Jacksonville Center
03:14PM 32.0078 -82.7161 22° Northeast 131 151 9,000  Climbing Jacksonville Center
03:15PM 32.0453 -82.7039 15° North 131 151 9,000  Level Jacksonville Center
03:16PM 32.0786 -82.6867 24° Northeast 131 151 9,100  Climbing Jacksonville Center
03:17PM 32.1161 -82.6717 19° North 131 151 9,100  Level Jacksonville Center
03:18PM 32.1539 -82.6569 18° North 131 151 9,100  Level Jacksonville Center
03:19PM 32.1892 -82.6397 22° Northeast 131 151 9,100  Level Jacksonville Center
03:20PM 32.2267 -82.6250 18° North 131 151 9,100  Level Jacksonville Center
03:23PM 32.3286 -82.5861 18° North 133 153 9,100 -60 Level Atlanta Center
03:24PM 32.3681 -82.5683 21° North 133 153 9,000 -60 Descending Atlanta Center
03:25PM 32.4056 -82.5553 16° North 133 153 9,000  Level Atlanta Center
03:26PM 32.4389 -82.5375 24° Northeast 133 153 9,000  Level Atlanta Center
03:27PM 32.4761 -82.5172 25° Northeast 133 153 9,000  Level Atlanta Center
03:28PM 32.5114 -82.5067 14° North 128 147 9,100  Climbing Atlanta Center
03:29PM 32.5467 -82.4914 20° North 128 147 9,100  Level Atlanta Center
03:30PM 32.5883 -82.4733 20° North 128 147 9,100 -60 Level Atlanta Center
03:31PM 32.6256 -82.4603 16° North 128 147 9,000 -60 Descending Atlanta Center
03:32PM 32.6608 -82.4375 29° Northeast 133 153 9,000  Level Atlanta Center
03:33PM 32.7003 -82.4244 16° North 133 153 9,100  Climbing Atlanta Center
03:34PM 32.7356 -82.4114 17° North 133 153 9,000 -60 Descending Atlanta Center
03:35PM 32.7731 -82.3958 19° North 133 153 9,000  Level Atlanta Center
03:36PM 32.8103 -82.3806 19° North 133 153 9,000  Level Atlanta Center
03:37PM 32.8456 -82.3625 23° Northeast 133 153 9,100  Climbing Atlanta Center
03:38PM 32.8831 -82.3494 16° North 133 153 9,100  Level Atlanta Center
03:39PM 32.9203 -82.3364 16° North 133 153 9,100  Level Atlanta Center
03:40PM 32.9556 -82.3158 26° Northeast 133 153 9,100  Level Atlanta Center
03:41PM 32.9931 -82.3003 19° North 133 153 9,100  Level Atlanta Center
03:42PM 33.0303 -82.2847 19° North 133 153 9,100 -60 Level Atlanta Center
03:44PM 33.0863 -82.2580 22° Northeast  Level FlightAware Approximate
03:51PM 33.2982 -82.1565 22° Northeast  Level FlightAware Approximate
03:52PM 33.3284 -82.1420 22° Northeast  Level FlightAware Approximate
03:53PM 33.3587 -82.1275 22° Northeast  Level FlightAware Approximate
03:54PM 33.3890 -82.1129 22° Northeast  Level FlightAware Approximate
03:55PM 33.4192 -82.0984 22° Northeast  Level FlightAware Approximate
03:56PM 33.4428 -82.0870 22° Northeast  Level FlightAware Approximate
03:57PM 33.4664 -82.0756 22° Northeast  Level FlightAware Approximate
03:58PM 33.4900 -82.0643 22° Northeast  Level FlightAware Approximate
03:59PM 33.5135 -82.0529 22° Northeast  Level FlightAware Approximate
04:00PM 33.5371 -82.0415 22° Northeast  Level FlightAware Approximate
04:01PM 33.5607 -82.0301 22° Northeast  Level FlightAware Approximate
04:02PM 33.5842 -82.0187 22° Northeast  Level FlightAware Approximate
04:03PM 33.6078 -82.0073 22° Northeast  Level FlightAware Approximate
04:04PM 33.6314 -81.9959 22° Northeast  Level FlightAware Approximate
04:05PM 33.6549 -81.9845 22° Northeast  Level FlightAware Approximate
04:06PM 33.6785 -81.9731 22° Northeast  Level FlightAware Approximate
04:07PM 33.7021 -81.9617 22° Northeast  Level FlightAware Approximate
04:08PM 33.7257 -81.9502 22° Northeast  Level FlightAware Approximate
04:09PM 33.7492 -81.9388 22° Northeast  Level FlightAware Approximate
04:10PM 33.7728 -81.9274 22° Northeast  Level FlightAware Approximate
04:11PM 33.7963 -81.9159 22° Northeast  Level FlightAware Approximate
04:12PM 33.8199 -81.9045 22° Northeast  Level FlightAware Approximate
04:13PM 33.8434 -81.8930 22° Northeast  Level FlightAware Approximate
04:14PM 33.8670 -81.8815 22° Northeast  Level FlightAware Approximate
04:15PM 33.8906 -81.8701 22° Northeast  Level FlightAware Approximate
04:16PM 33.9141 -81.8586 22° Northeast  Level FlightAware Approximate
04:17PM 33.9377 -81.8471 22° Northeast  Level FlightAware Approximate
04:18PM 33.9612 -81.8356 22° Northeast  Level FlightAware Approximate
04:19PM 33.9848 -81.8241 22° Northeast  Level FlightAware Approximate
04:20PM 34.0087 -81.8129 19° North  Level FlightAware Approximate
04:20PM 34.4881 -81.6094 20° North 166 191 8,100  Level Atlanta Center
04:21PM 34.0327 -81.8027 19° North  Level FlightAware Approximate
04:21PM 34.5150 -81.5958 23° Northeast 168 193 7,900  Level Atlanta Center
04:22PM 34.0566 -81.7925 19° North  Level FlightAware Approximate
04:23PM 34.0806 -81.7822 19° North  Level FlightAware Approximate
04:24PM 34.1045 -81.7720 19° North  Level FlightAware Approximate
04:25PM 34.1285 -81.7617 20° North  Level FlightAware Approximate
04:25PM 34.6850 -81.5331 17° North 155 178 5,300  Level Atlanta Center
04:26PM 34.1525 -81.7515 20° North  Level FlightAware Approximate
04:27PM 34.7719 -81.5025 16° North 140 161 5,000  Level Atlanta Center
04:29PM 34.8381 -81.4728 20° North 143 165 5,000 -180 Level Atlanta Center
04:30PM 34.8794 -81.4536 21° North 158 182 4,500 -360 Descending Atlanta Center
04:31PM 34.9228 -81.4372 17° North 153 176 4,300 -300 Descending Atlanta Center
04:32PM 34.9583 -81.4308 North 146 168 4,000 -180 Descending Atlanta Center
04:33PM 34.9975 -81.4169 16° North 142 163 4,000  Level Atlanta Center
04:34PM 35.0347 -81.4031 17° North 138 159 4,000  Level Atlanta Center
04:35PM 35.0719 -81.3867 20° North 138 159 4,000  Level Atlanta Center
04:36PM 35.1136 -81.3753 13° North 140 161 4,000  Level Atlanta Center
04:37PM 35.1508 -81.3639 14° North 139 160 4,000  Level Atlanta Center
04:38PM 35.1900 -81.3475 19° North 141 162 4,000 -60 Level Atlanta Center
04:39PM 35.2275 -81.3361 14° North 140 161 3,900 -60 Descending Atlanta Center
04:40PM 35.2647 -81.3222 17° North 138 159 3,900 -60 Level Atlanta Center
04:41PM 35.3019 -81.3133 11° North 140 161 3,800 -300 Descending Atlanta Center
04:42PM 35.3394 -81.3019 14° North 154 177 3,400 -480 Descending Atlanta Center